Home
Sitemap | Login/Register | Contact
Defense and Aerospace
Sustainment Partner
SEARCH
Enter Part Number, NSN, or Keyword
REGISTRATION BENEFITS
  • Priority Processing
  • RFQ Tracking
  • Real Time Communication
  • Dedicated Account Manager
  • Order Tracking

ALREADY A MEMBER?
Login to speed up your request

login
RFQ CART
You have 0 items in your RFQ cart.

CONTACT US
2350 Commerce Park Drive
Palm Bay, FL 32905 USA
info@iso-group.com

USA : 1-877-330-1580
Intl : +1-321-773-5710
Fax : +1-321-777-0499

ISO Group supports National Stock Numbers (NSN) relating to 1660-00-967-0010 - 1660009670012 and spare parts logistics for Aircraft Air Conditioning, Heating, and Pressurizing Equipment. 1660-00-967-0010 - 1660009670012 Request Quotes. Buy Online.



REQUEST QUOTE for 1660-00-967-0010
Part Number*
Alternate
QTY*
Name*
Email*
Telephone*
*Click here to Upload a List of parts




1660-00-967-0010 - 1660009670012

  • 1660-00-967-0010 1660009670010, 1660-00-967-0010 - PROPELLER,FAN - 1660009670010
  • 1660-00-967-0011 1660009670011, 1660-00-967-0011 - PARTS KIT,FAN - 1660009670011
  • 1660-00-967-0012 1660009670012, 1660-00-967-0012 - PARTS KIT,FAN - 1660009670012
  • 1660-00-967-3633 1660009673633, 1660-00-967-3633 - PARTS KIT,REGULATOR - 1660009673633
  • 1660-00-967-3664 1660009673664, 1660-00-967-3664 - PLATE,LIGHT - 1660009673664
  • 1660-00-967-3665 1660009673665, 1660-00-967-3665 - VALVE ASSEMBLY,ENVIRONMENTAL CONTROL,AIRCRAFT - 1660009673665
  • 1660-00-967-3666 1660009673666, 1660-00-967-3666 - SEAT AND VALVE,MATC - 1660009673666
  • 1660-00-967-3667 1660009673667, 1660-00-967-3667 - RETAINER,SPRING - 1660009673667
  • 1660-00-967-3668 1660009673668, 1660-00-967-3668 - SEAT,RELIEF VALVE - 1660009673668
  • 1660-00-967-3669 1660009673669, 1660-00-967-3669 - OUTLET,REGULATOR - 1660009673669
  • 1660-00-967-3670 1660009673670, 1660-00-967-3670 - VALVE ASSEMBLY,ENVIRONMENTAL CONTROL,AIRCRAFT - 1660009673670
  • 1660-00-967-3672 1660009673672, 1660-00-967-3672 - SEAT,DEMAND VALVE - 1660009673672
  • 1660-00-967-3673 1660009673673, 1660-00-967-3673 - PARTS KIT,AIR FLOW REGULATOR - 1660009673673
  • 1660-00-967-6800 1660009676800, 1660-00-967-6800 - n/a - 1660009676800
  • 1660-00-967-7568 1660009677568, 1660-00-967-7568 - HOUSING,AIR OUTLET,AIRCRAFT - 1660009677568
  • 1660-00-967-7582 1660009677582, 1660-00-967-7582 - HEAT EXCHANGER,AIR TO AIR,AIRCRAFT - 1660009677582
  • 1660-00-967-7590 1660009677590, 1660-00-967-7590 - DIFFUSER,AIR,AIRCRAFT HEATING AND VENTILATING - 1660009677590
  • 1660-00-967-7933 1660009677933, 1660-00-967-7933 - VALVE - 1660009677933
  • 1660-00-967-9469 1660009679469, 1660-00-967-9469 - n/a - 1660009679469
  • 1660-00-967-9470 1660009679470, 1660-00-967-9470 - n/a - 1660009679470
  • 1660-00-967-9471 1660009679471, 1660-00-967-9471 - n/a - 1660009679471
  • 1660-00-968-1099 1660009681099, 1660-00-968-1099 - DUCT ASSEMBLY,AIR CONDITIONING-HEATING,AIRCRAFT - 1660009681099
  • 1660-00-968-1465 1660009681465, 1660-00-968-1465 - REPAIR KIT - 1660009681465
  • 1660-00-968-1511 1660009681511, 1660-00-968-1511 - ORIFICE,CONTROL - 1660009681511
  • 1660-00-968-1512 1660009681512, 1660-00-968-1512 - BAFFLE - 1660009681512
  • 1660-00-968-6699 1660009686699, 1660-00-968-6699 - BODY,VALVE - 1660009686699
  • 1660-00-968-6700 1660009686700, 1660-00-968-6700 - COMPENSATOR,LEFT - 1660009686700
  • 1660-00-968-6701 1660009686701, 1660-00-968-6701 - COMPENSATOR,RIGHT - 1660009686701
  • 1660-00-968-7032 1660009687032, 1660-00-968-7032 - n/a - 1660009687032
  • 1660-00-968-8186 1660009688186, 1660-00-968-8186 - CONTROL,WINDSHIELD - 1660009688186
  • 1660-00-968-8187 1660009688187, 1660-00-968-8187 - REGULATOR,DEFOGGING - 1660009688187
  • 1660-00-968-8189 1660009688189, 1660-00-968-8189 - VALVE ASSEMBLY,SHUT - 1660009688189
  • 1660-00-968-8192 1660009688192, 1660-00-968-8192 - VALVE,REGULATING - 1660009688192
  • 1660-00-968-8208 1660009688208, 1660-00-968-8208 - CONTROLLER,TEMPERAT - 1660009688208
  • 1660-00-968-8209 1660009688209, 1660-00-968-8209 - CONTROL,PRESSURE - 1660009688209
  • 1660-00-968-8211 1660009688211, 1660-00-968-8211 - REGULATOR,PRESSURE - 1660009688211
  • 1660-00-968-8214 1660009688214, 1660-00-968-8214 - VALVE,SAFETY,CABIN - 1660009688214
  • 1660-00-968-8218 1660009688218, 1660-00-968-8218 - VALVE,PNEUMATIC - 1660009688218
  • 1660-00-968-8227 1660009688227, 1660-00-968-8227 - DIAPHRAGN,ACTUATOR - 1660009688227
  • 1660-00-968-8252 1660009688252, 1660-00-968-8252 - ROD,ACTUATOR - 1660009688252
  • 1660-00-968-8254 1660009688254, 1660-00-968-8254 - RING ASSEMBLY - 1660009688254
  • 1660-00-968-8369 1660009688369, 1660-00-968-8369 - SHAFT ASSY,ACTUATOR - 1660009688369
  • 1660-00-968-8372 1660009688372, 1660-00-968-8372 - ROD,ACTUATING - 1660009688372
  • 1660-00-968-8373 1660009688373, 1660-00-968-8373 - PARTS KIT,REGULATOR - 1660009688373
  • 1660-00-968-8374 1660009688374, 1660-00-968-8374 - VALVE - 1660009688374
  • 1660-00-968-8375 1660009688375, 1660-00-968-8375 - CAP,INLET - 1660009688375
  • 1660-00-968-8376 1660009688376, 1660-00-968-8376 - PARTS KIT,CAP - 1660009688376
  • 1660-00-968-8382 1660009688382, 1660-00-968-8382 - VALVE ASSEMBLY,INLE - 1660009688382
  • 1660-00-968-8389 1660009688389, 1660-00-968-8389 - PARTS KIT,VALVE - 1660009688389
  • 1660-00-968-8591 1660009688591, 1660-00-968-8591 - CONTROLLER,TEMPERAT - 1660009688591
  • 1660-00-968-8601 1660009688601, 1660-00-968-8601 - CONTROL SUB ASSEMBL - 1660009688601
  • 1660-00-968-8602 1660009688602, 1660-00-968-8602 - CONTROL MODULE - 1660009688602
  • 1660-00-968-8603 1660009688603, 1660-00-968-8603 - CONTROL SUB ASSEMBL - 1660009688603
  • 1660-00-968-8604 1660009688604, 1660-00-968-8604 - CONTROL SUB ASSEMBL - 1660009688604
  • 1660-00-968-8606 1660009688606, 1660-00-968-8606 - CONTROL SUB ASSEMBL - 1660009688606
  • 1660-00-968-8607 1660009688607, 1660-00-968-8607 - REACTOR ASSEMBLY - 1660009688607
  • 1660-00-968-8608 1660009688608, 1660-00-968-8608 - CONTROL SUB ASSEMBL - 1660009688608
  • 1660-00-968-8609 1660009688609, 1660-00-968-8609 - CONTROL SUB ASSEMBL - 1660009688609
  • 1660-00-968-8610 1660009688610, 1660-00-968-8610 - CONTROL SUB ASSEMBL - 1660009688610
  • 1660-00-968-8611 1660009688611, 1660-00-968-8611 - CONTROL SUB ASSEMBL - 1660009688611
  • 1660-00-968-8612 1660009688612, 1660-00-968-8612 - CONTROL SUB ASSEMBL - 1660009688612
  • 1660-00-968-8616 1660009688616, 1660-00-968-8616 - DISC,SPRING ADJUSTI - 1660009688616
  • 1660-00-968-8617 1660009688617, 1660-00-968-8617 - VALVE ASSEMBLY,ENVIRONMENTAL CONTROL,AIRCRAFT - 1660009688617
  • 1660-00-968-8621 1660009688621, 1660-00-968-8621 - BELLOFRAM,REGULATOR - 1660009688621
  • 1660-00-968-8623 1660009688623, 1660-00-968-8623 - BODY,ACTUATOR - 1660009688623
  • 1660-00-968-8633 1660009688633, 1660-00-968-8633 - PARTS KIT,CONTROL - 1660009688633
  • 1660-00-968-8634 1660009688634, 1660-00-968-8634 - PARTS KIT,CONTROL - 1660009688634
  • 1660-00-968-8645 1660009688645, 1660-00-968-8645 - HEAD SUB ASSEMBLY - 1660009688645
  • 1660-00-968-8647 1660009688647, 1660-00-968-8647 - PARTS KIT,REGULATOR - 1660009688647
  • 1660-00-968-8648 1660009688648, 1660-00-968-8648 - PARTS KIT,REGULATOR - 1660009688648
  • 1660-00-968-8660 1660009688660, 1660-00-968-8660 - n/a - 1660009688660
  • 1660-00-968-8674 1660009688674, 1660-00-968-8674 - n/a - 1660009688674
  • 1660-00-968-8700 1660009688700, 1660-00-968-8700 - BODY,VALVE - 1660009688700
  • 1660-00-968-8703 1660009688703, 1660-00-968-8703 - PARTS KIT,ACTUATOR - 1660009688703
  • 1660-00-968-8705 1660009688705, 1660-00-968-8705 - HOUSING,OIL SUMP - 1660009688705
  • 1660-00-968-8707 1660009688707, 1660-00-968-8707 - SLEEVE,BEARING STOP - 1660009688707
  • 1660-00-968-8708 1660009688708, 1660-00-968-8708 - CARRIER ASSY - 1660009688708
  • 1660-00-968-8709 1660009688709, 1660-00-968-8709 - SLEEVE,BEARING PREL - 1660009688709
  • 1660-00-968-8710 1660009688710, 1660-00-968-8710 - HOUSING,TURBINE - 1660009688710
  • 1660-00-968-8711 1660009688711, 1660-00-968-8711 - TURBINE WHEEL ASSEMBLY,AIRCRAFT COOLING TURBINE - 1660009688711
  • 1660-00-968-8781 1660009688781, 1660-00-968-8781 - SLEEVE,REGULATOR DI - 1660009688781
  • 1660-00-968-8782 1660009688782, 1660-00-968-8782 - GATE,VALVE - 1660009688782
  • 1660-00-968-9275 1660009689275, 1660-00-968-9275 - SHAFT,VALVE - 1660009689275
  • 1660-00-968-9557 1660009689557, 1660-00-968-9557 - TUBE ASSY,METAL - 1660009689557
  • 1660-00-968-9558 1660009689558, 1660-00-968-9558 - TUBE ASSY,METAL - 1660009689558
  • 1660-00-969-6515 1660009696515, 1660-00-969-6515 - REGULATOR,OXYGEN,DILUTER DEMAND - 1660009696515
  • 1660-00-969-6517 1660009696517, 1660-00-969-6517 - HEATER,AIRCRAFT - 1660009696517
  • 1660-00-969-6518 1660009696518, 1660-00-969-6518 - HEATER,AIRCRAFT - 1660009696518
  • 1660-00-969-9476 1660009699476, 1660-00-969-9476 - n/a - 1660009699476
  • 1660-00-969-9479 1660009699479, 1660-00-969-9479 - VALVE,FAN,BY-PASS - 1660009699479
  • 1660-00-969-9483 1660009699483, 1660-00-969-9483 - VALVE,AIR - 1660009699483
  • 1660-00-969-9489 1660009699489, 1660-00-969-9489 - VALVE - 1660009699489
  • 1660-00-969-9507 1660009699507, 1660-00-969-9507 - CONTROL MODULE - 1660009699507
  • 1660-00-969-9509 1660009699509, 1660-00-969-9509 - CONTROL MODULE - 1660009699509
  • 1660-00-969-9669 1660009699669, 1660-00-969-9669 - VALVE,AIR SHUT OFF - 1660009699669
  • 1660-00-969-9730 1660009699730, 1660-00-969-9730 - CAP,RETAINER - 1660009699730
  • 1660-00-969-9772 1660009699772, 1660-00-969-9772 - HOUSING,JET PUMP - 1660009699772
  • 1660-00-969-9774 1660009699774, 1660-00-969-9774 - VALVE ASSEMBLY,ENVIRONMENTAL CONTROL,AIRCRAFT - 1660009699774
  • 1660-00-970-2998 1660009702998, 1660-00-970-2998 - n/a - 1660009702998
  • 1660-00-970-2999 1660009702999, 1660-00-970-2999 - n/a - 1660009702999
  • 1660-00-970-3000 1660009703000, 1660-00-970-3000 - n/a - 1660009703000
  • 1660-00-970-3002 1660009703002, 1660-00-970-3002 - RETAINER,LIFE RAFT - 1660009703002
  • 1660-00-970-3005 1660009703005, 1660-00-970-3005 - BULB,ADAPTER - 1660009703005
  • 1660-00-970-3006 1660009703006, 1660-00-970-3006 - LATCH,SNAP HOOK - 1660009703006
  • 1660-00-970-3759 1660009703759, 1660-00-970-3759 - VALVE ASSEMBLY - 1660009703759
  • 1660-00-970-3760 1660009703760, 1660-00-970-3760 - VALVE ASSEMBLY,DEFO - 1660009703760
  • 1660-00-970-3761 1660009703761, 1660-00-970-3761 - CONTROLLER,TEMPERAT - 1660009703761
  • 1660-00-970-3764 1660009703764, 1660-00-970-3764 - REGULATOR,AIR PRESSURE,AIRCRAFT CABIN - 1660009703764
  • 1660-00-970-3767 1660009703767, 1660-00-970-3767 - VALVE ASSEMBLY,CABI - 1660009703767
  • 1660-00-970-3768 1660009703768, 1660-00-970-3768 - CONTROLLER,TEMPERAT - 1660009703768
  • 1660-00-970-3805 1660009703805, 1660-00-970-3805 - HEAT EXCHANGER ASSY - 1660009703805
  • 1660-00-970-4665 1660009704665, 1660-00-970-4665 - n/a - 1660009704665
  • 1660-00-970-4666 1660009704666, 1660-00-970-4666 - n/a - 1660009704666
  • 1660-00-970-5978 1660009705978, 1660-00-970-5978 - SLEEVE,SURVIVAL KIT - 1660009705978
  • 1660-00-970-5979 1660009705979, 1660-00-970-5979 - POPPET,OXYGEN UNIT - 1660009705979
  • 1660-00-970-5980 1660009705980, 1660-00-970-5980 - DISCONNECT ASSEMBLY - 1660009705980
  • 1660-00-970-7421 1660009707421, 1660-00-970-7421 - n/a - 1660009707421
  • 1660-00-971-2569 1660009712569, 1660-00-971-2569 - VALVE ASSEMBLY - 1660009712569
  • 1660-00-971-2572 1660009712572, 1660-00-971-2572 - SHIELD ASSEMBLY - 1660009712572
  • 1660-00-971-4632 1660009714632, 1660-00-971-4632 - PARTS KIT,CONTROL BOX - 1660009714632
  • 1660-00-971-4634 1660009714634, 1660-00-971-4634 - n/a - 1660009714634
  • 1660-00-971-4900 1660009714900, 1660-00-971-4900 - DIAPHRAGM ASSY,VALV - 1660009714900
  • 1660-00-971-4901 1660009714901, 1660-00-971-4901 - COVER AND FILTER AS - 1660009714901
  • 1660-00-971-4913 1660009714913, 1660-00-971-4913 - VALVE ASSY,AIR COND - 1660009714913
  • 1660-00-972-1882 1660009721882, 1660-00-972-1882 - HOSE ASSY,OXYGEN - 1660009721882
  • 1660-00-972-1885 1660009721885, 1660-00-972-1885 - n/a - 1660009721885
  • 1660-00-972-3252 1660009723252, 1660-00-972-3252 - SENSOR,TEMPERATURE - 1660009723252
  • 1660-00-972-4365 1660009724365, 1660-00-972-4365 - n/a - 1660009724365
  • 1660-00-972-4368 1660009724368, 1660-00-972-4368 - n/a - 1660009724368
  • 1660-00-972-4370 1660009724370, 1660-00-972-4370 - PIN,PIVOT - 1660009724370
  • 1660-00-972-4398 1660009724398, 1660-00-972-4398 - CAP,ANEROID - 1660009724398
  • 1660-00-972-4400 1660009724400, 1660-00-972-4400 - VALVE ASSEMBLY,ALTI - 1660009724400
  • 1660-00-972-4402 1660009724402, 1660-00-972-4402 - PLATE,SEAR - 1660009724402
  • 1660-00-972-4405 1660009724405, 1660-00-972-4405 - BUMPER,LINK,ASSEMBL - 1660009724405
  • 1660-00-972-4934 1660009724934, 1660-00-972-4934 - DUCT,AIR SUPPLY - 1660009724934
  • 1660-00-972-4941 1660009724941, 1660-00-972-4941 - DUCT ASSEMBLY,AIR CONDITIONING-HEATING,AIRCRAFT - 1660009724941
  • 1660-00-972-5917 1660009725917, 1660-00-972-5917 - VALVE - 1660009725917
  • 1660-00-972-5918 1660009725918, 1660-00-972-5918 - VALVE - 1660009725918
  • 1660-00-972-6078 1660009726078, 1660-00-972-6078 - PAD,COMFORT - 1660009726078
  • 1660-00-972-6079 1660009726079, 1660-00-972-6079 - BODY,QUICK DISCONNE - 1660009726079
  • 1660-00-972-6080 1660009726080, 1660-00-972-6080 - TAG,SEAT PAN ASSEMB - 1660009726080
  • 1660-00-972-6081 1660009726081, 1660-00-972-6081 - TAG,SEAT PAN ASSEMB - 1660009726081
  • 1660-00-972-6088 1660009726088, 1660-00-972-6088 - PARTS KIT,SEATPAN - 1660009726088
  • 1660-00-972-6903 1660009726903, 1660-00-972-6903 - PIN,LEVER ASSEMBLY - 1660009726903
  • 1660-00-972-6911 1660009726911, 1660-00-972-6911 - VALVE ASSEMBLY,ENVIRONMENTAL CONTROL,AIRCRAFT - 1660009726911
  • 1660-00-972-7329 1660009727329, 1660-00-972-7329 - OXYGEN SYSTEM ASSY - 1660009727329
  • 1660-00-973-0740 1660009730740, 1660-00-973-0740 - BODY,VALVE - 1660009730740
  • 1660-00-973-2631 1660009732631, 1660-00-973-2631 - PARTS KIT,PANEL OVERHAUL - 1660009732631
  • 1660-00-973-2632 1660009732632, 1660-00-973-2632 - PARTS KIT,REGULATOR - 1660009732632
  • 1660-00-973-3045 1660009733045, 1660-00-973-3045 - n/a - 1660009733045
  • 1660-00-973-4339 1660009734339, 1660-00-973-4339 - PARTS KIT,VALVE,CURE - 1660009734339
  • 1660-00-973-4343 1660009734343, 1660-00-973-4343 - ADAPTER ASSEMBLY,O, - 1660009734343
  • 1660-00-973-4345 1660009734345, 1660-00-973-4345 - SUSPENSION ASSEMBLY - 1660009734345
  • 1660-00-973-4346 1660009734346, 1660-00-973-4346 - HARDSHELL ASSY,OXYG - 1660009734346
  • 1660-00-973-4347 1660009734347, 1660-00-973-4347 - HARNESS ASSEMBLY,O, - 1660009734347
  • 1660-00-973-4348 1660009734348, 1660-00-973-4348 - STRAP ASSEMBLY,OXYG - 1660009734348
  • 1660-00-973-4349 1660009734349, 1660-00-973-4349 - EARPIECE ASSEMBLY,O - 1660009734349
  • 1660-00-973-4350 1660009734350, 1660-00-973-4350 - EARPIECE ASSEMBLY,O - 1660009734350
  • 1660-00-973-4683 1660009734683, 1660-00-973-4683 - FILTER ELEMENT,AIR CONDITIONING - 1660009734683
  • 1660-00-973-7271 1660009737271, 1660-00-973-7271 - FRAME,REGULATOR - 1660009737271
  • 1660-00-973-7943 1660009737943, 1660-00-973-7943 - CABLE ASSEMBLY,SPECIAL PURPOSE,ELECTRICAL - 1660009737943
  • 1660-00-974-1998 1660009741998, 1660-00-974-1998 - n/a - 1660009741998
  • 1660-00-974-2848 1660009742848, 1660-00-974-2848 - REGULATOR,AIR PRESSURE,AIRCRAFT CABIN - 1660009742848
  • 1660-00-974-2849 1660009742849, 1660-00-974-2849 - REGULATOR,AIR PRESSURE,AIRCRAFT CABIN - 1660009742849
  • 1660-00-974-4972 1660009744972, 1660-00-974-4972 - n/a - 1660009744972
  • 1660-00-974-5285 1660009745285, 1660-00-974-5285 - CASE ASSY,SURVIVAL - 1660009745285
  • 1660-00-974-5286 1660009745286, 1660-00-974-5286 - PARTS KIT,REGULATOR - 1660009745286
  • 1660-00-974-8243 1660009748243, 1660-00-974-8243 - LOCK ASSEMBLY - 1660009748243
  • 1660-00-974-8816 1660009748816, 1660-00-974-8816 - DUCT ASSEMBLY,AIR CONDITIONING-HEATING,AIRCRAFT - 1660009748816
  • 1660-00-974-8827 1660009748827, 1660-00-974-8827 - n/a - 1660009748827
  • 1660-00-975-4286 1660009754286, 1660-00-975-4286 - FILTER ELEMENT,AIR CONDITIONING - 1660009754286
  • 1660-00-975-4291 1660009754291, 1660-00-975-4291 - HARNESS ASSEMBLY,MASK,OXYGEN - 1660009754291
  • 1660-00-975-4293 1660009754293, 1660-00-975-4293 - CABLE ASSY,ACTUATIN - 1660009754293
  • 1660-00-975-4295 1660009754295, 1660-00-975-4295 - CRADLE,BOTTLE,CONTA - 1660009754295
  • 1660-00-975-4296 1660009754296, 1660-00-975-4296 - SLIDER,LOCK,LH,CONT - 1660009754296
  • 1660-00-975-4297 1660009754297, 1660-00-975-4297 - CABLE ASSEMBLY,SURVIVAL,ACTUATING - 1660009754297
  • 1660-00-975-4301 1660009754301, 1660-00-975-4301 - GUIDE,HINGE,LH,CONT - 1660009754301
  • 1660-00-975-4339 1660009754339, 1660-00-975-4339 - GUIDE,HINGE,RH,CONT - 1660009754339
  • 1660-00-975-5181 1660009755181, 1660-00-975-5181 - VALVE ASSEMBLY,ENVIRONMENTAL CONTROL,AIRCRAFT - 1660009755181